Terminal Aerodrome Forecast
Issued by NWS Wilmington, OH

Current Version | Previous Version | Text Only | Print | Product List | Glossary Off
Versions: 1 2 3 4 5 6 7 8 9 10 11 12 13 14 15 16 17 18 19 20 21

000
FTUS41 KILN 151100
TAFDAY
TAF
KDAY 151130Z 1512/1612 06010KT P6SM BKN200
     FM151600 08014G22KT P6SM BKN120
     FM160000 10009KT P6SM BKN070
     FM160600 11009KT P6SM VCSH OVC040=

USA.gov is the U.S. government's official web portal to all federal, state and local government web resources and services.